logo dgac
Jueves 18 de Enero del 2018
Buscar por aerodromo o helipuerto
Ingrese nombre de aeródromo, localidad o designador OACI:
SPECI del 18-01-2018 a las 11:30 UTC
SPECI SCBA 181130Z 34021KT 9999 SCT030 BKN100 BKN200 13/08 Q1015
Viento: dirección 340 grados, velocidad 21 nudos
Visibilidad: 10 km o más
Nubes: Nubosidad parcial a 3000 pies sobre el nivel del aeródromo
Nubes: Nublado a 10000 pies sobre el nivel del aeródromo
Nubes: Nublado a 20000 pies sobre el nivel del aeródromo
Temperatura: 13 °C
Rocío: 8 °C
Humedad_relativa: 72%
Presión: 1015 hPa
METAR del 18-01-2018 a las 11:00 UTC
METAR SCBA 181100Z AUTO 35016G27KT //// // 13/08 Q1016
Nan: AUTO
Viento: dirección 350 grados, velocidad 16 nudos, con ráfagas de velocidad máxima de 27Nudos
Nan: ////
Nan: //
Temperatura: 13 °C
Rocío: 8 °C
Humedad_relativa: 72%
Presión: 1016 hPa
METAR del 18-01-2018 a las 11:00 UTC
METAR SCBA 181100Z AUTO 35016G27KT //// // 13/08 Q1016
Nan: AUTO
Viento: dirección 350 grados, velocidad 16 nudos, con ráfagas de velocidad máxima de 27Nudos
Nan: ////
Nan: //
Temperatura: 13 °C
Rocío: 8 °C
Humedad_relativa: 72%
Presión: 1016 hPa
METAR del 18-01-2018 a las 11:00 UTC
METAR SCBA 181100Z AUTO 35016G27KT //// // 13/08 Q1016
Nan: AUTO
Viento: dirección 350 grados, velocidad 16 nudos, con ráfagas de velocidad máxima de 27Nudos
Nan: ////
Nan: //
Temperatura: 13 °C
Rocío: 8 °C
Humedad_relativa: 72%
Presión: 1016 hPa
METAR del 18-01-2018 a las 10:00 UTC
METAR SCBA 181000Z AUTO 33018KT //// // 13/08 Q1015
Nan: AUTO
Viento: dirección 330 grados, velocidad 18 nudos
Nan: ////
Nan: //
Temperatura: 13 °C
Rocío: 8 °C
Humedad_relativa: 72%
Presión: 1015 hPa
METAR del 18-01-2018 a las 09:00 UTC
METAR SCBA 180900Z AUTO 32012KT 290V350 //// // 13/08 Q1015
Nan: AUTO
Viento: dirección 320 grados, velocidad 12 nudos
Viento con dirección variable entre 290 y 350 grados
Nan: ////
Nan: //
Temperatura: 13 °C
Rocío: 8 °C
Humedad_relativa: 72%
Presión: 1015 hPa
METAR del 18-01-2018 a las 08:00 UTC
METAR SCBA 180800Z AUTO 30019KT //// // 13/08 Q1015
Nan: AUTO
Viento: dirección 300 grados, velocidad 19 nudos
Nan: ////
Nan: //
Temperatura: 13 °C
Rocío: 8 °C
Humedad_relativa: 72%
Presión: 1015 hPa
METAR del 18-01-2018 a las 07:00 UTC
METAR SCBA 180700Z AUTO 31021KT //// // 13/08 Q1015
Nan: AUTO
Viento: dirección 310 grados, velocidad 21 nudos
Nan: ////
Nan: //
Temperatura: 13 °C
Rocío: 8 °C
Humedad_relativa: 72%
Presión: 1015 hPa
METAR del 18-01-2018 a las 06:00 UTC
METAR SCBA 180600Z AUTO 30016KT //// // 13/08 Q1015
Nan: AUTO
Viento: dirección 300 grados, velocidad 16 nudos
Nan: ////
Nan: //
Temperatura: 13 °C
Rocío: 8 °C
Humedad_relativa: 72%
Presión: 1015 hPa
METAR del 18-01-2018 a las 05:00 UTC
METAR SCBA 180500Z AUTO 31020KT //// // 13/08 Q1015
Nan: AUTO
Viento: dirección 310 grados, velocidad 20 nudos
Nan: ////
Nan: //
Temperatura: 13 °C
Rocío: 8 °C
Humedad_relativa: 72%
Presión: 1015 hPa